createdAt,value
2019-04-03T00:02:06.553Z,13.60
2019-04-03T00:04:36.110Z,13.60
2019-04-03T00:07:06.036Z,13.60
2019-04-03T00:09:36.551Z,13.60
2019-04-03T00:12:06.385Z,13.50
2019-04-03T00:14:35.841Z,13.50
2019-04-03T00:17:05.392Z,13.50
2019-04-03T00:19:34.930Z,13.50
2019-04-03T00:22:04.449Z,13.40
2019-04-03T00:24:33.993Z,13.40
2019-04-03T00:27:03.633Z,13.30
2019-04-03T00:29:33.138Z,13.30
2019-04-03T00:32:02.696Z,13.30
2019-04-03T00:34:32.232Z,13.20
2019-04-03T00:37:01.865Z,13.10
2019-04-03T00:39:31.407Z,13.10
2019-04-03T00:42:00.944Z,13.00
2019-04-03T00:44:30.477Z,13.00
2019-04-03T00:47:00.157Z,12.90
2019-04-03T00:49:29.642Z,12.90
2019-04-03T00:51:59.178Z,12.80
2019-04-03T00:54:31.345Z,12.80
2019-04-03T00:57:04.150Z,12.80
2019-04-03T00:59:33.686Z,12.80
2019-04-03T01:02:05.174Z,12.70
2019-04-03T01:04:36.827Z,12.70
2019-04-03T01:07:07.492Z,12.60
2019-04-03T01:09:37.046Z,12.60
2019-04-03T01:12:06.858Z,12.50
2019-04-03T01:14:37.500Z,12.50
2019-04-03T01:17:08.980Z,12.50
2019-04-03T01:19:39.808Z,12.50
2019-04-03T01:22:10.638Z,12.40
2019-04-03T01:24:40.359Z,12.40
2019-04-03T01:27:11.941Z,12.40
2019-04-03T01:29:42.928Z,12.40
2019-04-03T01:32:15.146Z,12.40
2019-04-03T01:34:43.986Z,12.40
2019-04-03T01:37:13.822Z,12.40
2019-04-03T01:39:43.450Z,12.30
2019-04-03T01:42:13.168Z,12.30
2019-04-03T01:44:44.690Z,12.30
2019-04-03T01:47:16.061Z,12.20
2019-04-03T01:49:46.943Z,12.20
2019-04-03T01:52:16.464Z,12.20
2019-04-03T01:54:47.251Z,12.10
2019-04-03T01:57:17.973Z,12.10
2019-04-03T01:59:47.510Z,12.00
2019-04-03T02:02:18.537Z,12.00
2019-04-03T02:04:48.046Z,12.00
2019-04-03T02:07:17.596Z,12.00
2019-04-03T02:09:47.304Z,11.90
2019-04-03T02:12:17.936Z,11.90
2019-04-03T02:14:48.085Z,11.80
2019-04-03T02:17:17.615Z,11.80
2019-04-03T02:19:47.147Z,11.80
2019-04-03T02:22:16.686Z,11.70
2019-04-03T02:24:46.235Z,11.70
2019-04-03T02:27:15.772Z,11.70
2019-04-03T02:29:45.354Z,11.60
2019-04-03T02:32:15.135Z,11.60
2019-04-03T02:34:44.747Z,11.60
2019-04-03T02:37:18.032Z,11.60
2019-04-03T02:39:49.467Z,11.60
2019-04-03T02:42:20.839Z,11.50
2019-04-03T02:44:51.706Z,11.50
2019-04-03T02:47:21.666Z,11.50
2019-04-03T02:49:51.355Z,11.40
2019-04-03T02:52:24.335Z,11.40
2019-04-03T02:54:53.858Z,11.40
2019-04-03T02:57:23.579Z,11.40
2019-04-03T02:59:53.227Z,11.30
2019-04-03T03:02:22.773Z,11.30
2019-04-03T03:04:55.652Z,11.30
2019-04-03T03:07:25.216Z,11.20
2019-04-03T03:09:55.256Z,11.20
2019-04-03T03:12:27.382Z,11.20
2019-04-03T03:14:56.459Z,11.10
2019-04-03T03:17:27.716Z,11.10
2019-04-03T03:19:59.470Z,11.10
2019-04-03T03:22:29.876Z,11.10
2019-04-03T03:25:00.997Z,11.10
2019-04-03T03:27:30.719Z,11.10
2019-04-03T03:30:00.568Z,11.10
2019-04-03T03:32:34.867Z,11.10
2019-04-03T03:35:12.311Z,11.10
2019-04-03T03:37:35.551Z,11.10
2019-04-03T03:40:06.316Z,11.10
2019-04-03T03:42:37.106Z,11.00
2019-04-03T03:45:07.583Z,11.00
2019-04-03T03:47:38.056Z,11.00
2019-04-03T03:50:08.572Z,10.90
2019-04-03T03:52:39.424Z,10.90
2019-04-03T03:55:09.750Z,10.80
2019-04-03T03:57:40.675Z,10.80
2019-04-03T04:00:11.640Z,10.80
2019-04-03T04:02:44.310Z,10.80
2019-04-03T04:05:12.439Z,10.70
2019-04-03T04:07:42.039Z,10.70
2019-04-03T04:10:12.165Z,10.70
2019-04-03T04:12:43.496Z,10.60
2019-04-03T04:15:13.326Z,10.60
2019-04-03T04:17:42.840Z,10.60
2019-04-03T04:20:13.032Z,10.60
2019-04-03T04:22:43.974Z,10.60
2019-04-03T04:25:13.607Z,10.60
2019-04-03T04:27:43.771Z,10.60
2019-04-03T04:30:16.632Z,10.60
2019-04-03T04:32:46.909Z,10.60
2019-04-03T04:35:16.602Z,10.60
2019-04-03T04:37:46.154Z,10.60
2019-04-03T04:40:15.781Z,10.60
2019-04-03T04:42:45.638Z,10.60
2019-04-03T04:45:15.611Z,10.50
2019-04-03T04:47:46.555Z,10.50
2019-04-03T04:50:24.253Z,10.50
2019-04-03T04:52:53.551Z,10.50
2019-04-03T04:55:23.107Z,10.50
2019-04-03T04:57:52.671Z,10.50
2019-04-03T05:00:22.223Z,10.50
2019-04-03T05:02:51.767Z,10.50
2019-04-03T05:05:21.318Z,10.50
2019-04-03T05:07:50.871Z,10.50
2019-04-03T05:10:20.600Z,10.50
2019-04-03T05:12:52.054Z,10.40
2019-04-03T05:15:25.144Z,10.40
2019-04-03T05:17:57.105Z,10.40
2019-04-03T05:20:26.212Z,10.40
2019-04-03T05:22:55.827Z,10.40
2019-04-03T05:25:25.365Z,10.40
2019-04-03T05:27:54.936Z,10.40
2019-04-03T05:30:32.819Z,10.50
2019-04-03T05:33:02.360Z,10.60
2019-04-03T05:35:52.051Z,10.70
2019-04-03T05:38:22.459Z,10.70
2019-04-03T05:40:56.480Z,10.80
2019-04-03T05:43:26.201Z,10.80
2019-04-03T05:45:55.976Z,10.90
2019-04-03T05:48:37.135Z,10.90
2019-04-03T05:51:13.047Z,11.00
2019-04-03T05:53:47.312Z,11.10
2019-04-03T05:56:24.467Z,11.20
2019-04-03T05:58:56.865Z,11.20
2019-04-03T06:01:25.517Z,11.30
2019-04-03T06:03:55.371Z,11.30
2019-04-03T06:06:25.257Z,11.40
2019-04-03T06:08:56.464Z,11.40
2019-04-03T06:11:25.977Z,11.50
2019-04-03T06:13:55.600Z,11.50
2019-04-03T06:16:25.475Z,11.60
2019-04-03T06:18:55.272Z,11.60
2019-04-03T06:21:24.892Z,11.70
2019-04-03T06:23:54.483Z,11.80
2019-04-03T06:26:24.268Z,11.80
2019-04-03T06:28:54.015Z,11.90
2019-04-03T06:31:24.306Z,11.90
2019-04-03T06:33:54.782Z,12.00
2019-04-03T06:36:26.701Z,12.10
2019-04-03T06:38:57.143Z,12.10
2019-04-03T06:41:27.188Z,12.30
2019-04-03T06:43:56.846Z,12.40
2019-04-03T06:46:28.576Z,12.60
2019-04-03T06:48:57.717Z,12.70
2019-04-03T06:51:27.269Z,12.80
2019-04-03T06:53:58.782Z,12.90
2019-04-03T06:56:28.038Z,13.10
2019-04-03T06:58:57.562Z,13.20
2019-04-03T07:01:27.275Z,13.30
2019-04-03T07:03:57.090Z,13.40
2019-04-03T07:06:27.693Z,13.60
2019-04-03T07:08:58.294Z,13.70
2019-04-03T07:11:28.175Z,13.90
2019-04-03T07:14:01.422Z,14.00
2019-04-03T07:16:31.336Z,14.10
2019-04-03T07:19:01.340Z,14.30
2019-04-03T07:21:32.679Z,14.40
2019-04-03T07:24:02.287Z,14.50
2019-04-03T07:26:32.026Z,14.60
2019-04-03T07:29:02.634Z,14.60
2019-04-03T07:31:32.307Z,14.70
2019-04-03T07:34:03.443Z,14.80
2019-04-03T07:36:34.368Z,14.80
2019-04-03T07:39:06.291Z,14.90
2019-04-03T07:41:35.888Z,15.00
2019-04-03T07:44:05.800Z,15.00
2019-04-03T07:46:35.331Z,15.10
2019-04-03T07:49:04.898Z,15.20
2019-04-03T07:51:34.650Z,15.20
2019-04-03T07:54:04.949Z,15.30
2019-04-03T07:56:34.728Z,15.40
2019-04-03T07:59:04.364Z,15.40
2019-04-03T08:01:33.890Z,15.50
2019-04-03T08:04:03.450Z,15.60
2019-04-03T08:06:35.039Z,15.70
2019-04-03T08:09:09.080Z,15.90
2019-04-03T08:11:37.478Z,16.00
2019-04-03T08:14:09.141Z,16.20
2019-04-03T08:16:41.602Z,16.30
2019-04-03T08:19:09.878Z,16.50
2019-04-03T08:21:39.430Z,16.50
2019-04-03T08:24:08.990Z,16.60
2019-04-03T08:26:38.719Z,16.70
2019-04-03T08:29:08.243Z,16.70
2019-04-03T08:31:37.774Z,16.70
2019-04-03T08:34:16.294Z,16.80
2019-04-03T08:36:39.815Z,16.80
2019-04-03T08:39:09.763Z,16.80
2019-04-03T08:41:39.323Z,16.80
2019-04-03T08:44:09.290Z,16.80
2019-04-03T08:46:39.059Z,16.80
2019-04-03T08:49:08.630Z,16.80
2019-04-03T08:51:38.258Z,16.80
2019-04-03T08:54:09.815Z,16.80
2019-04-03T08:56:39.003Z,16.90
2019-04-03T08:59:08.542Z,16.90
2019-04-03T09:01:38.219Z,17.00
2019-04-03T09:04:08.014Z,17.10
2019-04-03T09:06:37.596Z,17.20
2019-04-03T09:09:09.679Z,17.30
2019-04-03T09:11:39.337Z,17.40
2019-04-03T09:14:09.173Z,17.50
2019-04-03T09:16:38.979Z,17.60
2019-04-03T09:19:10.462Z,17.80
2019-04-03T09:21:39.874Z,17.90
2019-04-03T09:24:09.472Z,18.00
2019-04-03T09:26:39.005Z,18.10
2019-04-03T09:29:08.530Z,18.30
2019-04-03T09:31:38.131Z,18.40
2019-04-03T09:34:07.891Z,18.40
2019-04-03T09:36:37.583Z,18.50
2019-04-03T09:39:12.916Z,18.60
2019-04-03T09:41:42.279Z,18.70
2019-04-03T09:44:11.879Z,18.70
2019-04-03T09:46:44.536Z,18.70
2019-04-03T09:49:13.099Z,18.60
2019-04-03T09:51:42.839Z,18.60
2019-04-03T09:54:13.998Z,18.50
2019-04-03T09:56:56.114Z,18.50
2019-04-03T09:59:15.929Z,18.60
2019-04-03T10:01:47.827Z,18.50
2019-04-03T10:04:20.053Z,18.50
2019-04-03T10:06:48.572Z,18.50
2019-04-03T10:09:18.675Z,18.50
2019-04-03T10:11:50.603Z,18.50
2019-04-03T10:14:19.662Z,18.50
2019-04-03T10:16:49.943Z,18.50
2019-04-03T10:19:19.471Z,18.50
2019-04-03T10:21:51.752Z,18.50
2019-04-03T10:24:20.370Z,18.50
2019-04-03T10:26:49.995Z,18.60
2019-04-03T10:29:21.899Z,18.60
2019-04-03T10:31:53.126Z,18.70
2019-04-03T10:34:22.806Z,18.80
2019-04-03T10:36:52.736Z,18.80
2019-04-03T10:39:23.507Z,18.90
2019-04-03T10:41:53.079Z,19.00
2019-04-03T10:44:22.638Z,18.90
2019-04-03T10:46:52.163Z,19.00
2019-04-03T10:49:21.710Z,19.10
2019-04-03T10:51:51.331Z,19.10
2019-04-03T10:54:21.931Z,19.20
2019-04-03T10:56:53.175Z,19.30
2019-04-03T10:59:22.906Z,19.30
2019-04-03T11:01:52.465Z,19.40
2019-04-03T11:04:22.095Z,19.40
2019-04-03T11:06:51.806Z,19.50
2019-04-03T11:09:21.356Z,19.50
2019-04-03T11:11:54.311Z,19.60
2019-04-03T11:14:24.040Z,19.60
2019-04-03T11:16:53.738Z,19.70
2019-04-03T11:19:23.429Z,19.70
2019-04-03T11:21:54.699Z,19.80
2019-04-03T11:24:24.511Z,19.80
2019-04-03T11:26:54.788Z,19.90
2019-04-03T11:29:24.528Z,19.90
2019-04-03T11:31:54.418Z,19.90
2019-04-03T11:34:24.143Z,20.00
2019-04-03T11:36:54.024Z,20.00
2019-04-03T11:39:24.175Z,20.00
2019-04-03T11:41:55.574Z,20.00
2019-04-03T11:44:25.643Z,20.00
2019-04-03T11:46:55.860Z,20.00
2019-04-03T11:49:25.472Z,20.10
2019-04-03T11:51:55.197Z,20.30
2019-04-03T11:54:25.092Z,20.40
2019-04-03T11:56:56.656Z,20.70
2019-04-03T11:59:26.398Z,20.70
2019-04-03T12:01:56.391Z,20.80
2019-04-03T12:04:25.994Z,20.80
2019-04-03T12:06:55.526Z,20.80
2019-04-03T12:09:25.486Z,20.90
2019-04-03T12:11:55.542Z,20.90
2019-04-03T12:14:25.298Z,20.80
2019-04-03T12:16:57.046Z,20.80
2019-04-03T12:19:26.270Z,20.70
2019-04-03T12:21:55.834Z,20.60
2019-04-03T12:24:25.362Z,20.70
2019-04-03T12:26:55.482Z,20.70
2019-04-03T12:29:25.668Z,20.80
2019-04-03T12:31:55.271Z,21.00
2019-04-03T12:34:25.069Z,21.20
2019-04-03T12:36:54.889Z,21.30
2019-04-03T12:39:28.071Z,21.40
2019-04-03T12:41:58.241Z,21.40
2019-04-03T12:44:29.004Z,21.60
2019-04-03T12:46:59.005Z,21.70
2019-04-03T12:49:28.535Z,21.90
2019-04-03T12:51:58.156Z,22.00
2019-04-03T12:54:27.995Z,22.10
2019-04-03T12:57:00.295Z,22.10
2019-04-03T12:59:29.347Z,21.90
2019-04-03T13:01:59.348Z,21.70
2019-04-03T13:04:31.064Z,21.80
2019-04-03T13:07:00.376Z,21.80
2019-04-03T13:09:29.914Z,21.50
2019-04-03T13:12:00.081Z,21.60
2019-04-03T13:14:30.205Z,21.60
2019-04-03T13:17:00.949Z,21.70
2019-04-03T13:19:30.795Z,21.70
2019-04-03T13:22:00.506Z,21.80
2019-04-03T13:24:30.316Z,21.90
2019-04-03T13:27:00.303Z,22.00
2019-04-03T13:29:29.856Z,22.20
2019-04-03T13:31:59.650Z,22.50
2019-04-03T13:34:31.153Z,22.90
2019-04-03T13:37:00.459Z,23.20
2019-04-03T13:39:30.949Z,23.30
2019-04-03T13:42:01.947Z,23.40
2019-04-03T13:44:31.891Z,23.50
2019-04-03T13:47:01.510Z,23.50
2019-04-03T13:49:31.386Z,23.30
2019-04-03T13:52:10.747Z,23.20
2019-04-03T13:54:46.177Z,23.00
2019-04-03T13:57:34.921Z,22.90
2019-04-03T14:00:19.905Z,23.00
2019-04-03T14:02:56.880Z,23.30
2019-04-03T14:05:27.817Z,23.40
2019-04-03T14:07:57.780Z,23.60
2019-04-03T14:10:27.919Z,23.70
2019-04-03T14:12:59.364Z,23.60
2019-04-03T14:15:31.189Z,23.30
2019-04-03T14:18:00.804Z,23.20
2019-04-03T14:20:30.961Z,23.30
2019-04-03T14:23:02.705Z,23.30
2019-04-03T14:25:38.006Z,23.70
2019-04-03T14:28:07.147Z,23.80
2019-04-03T14:30:37.175Z,24.20
2019-04-03T14:33:06.977Z,24.30
2019-04-03T14:35:48.715Z,24.50
2019-04-03T14:38:07.875Z,24.90
2019-04-03T14:40:37.387Z,24.90
2019-04-03T14:43:06.975Z,24.60
2019-04-03T14:45:38.754Z,25.00
2019-04-03T14:48:07.665Z,25.20
2019-04-03T14:50:38.346Z,25.50
2019-04-03T14:53:08.550Z,25.80
2019-04-03T14:55:47.185Z,25.90
2019-04-03T14:58:09.860Z,26.30
2019-04-03T15:00:39.638Z,26.60
2019-04-03T15:03:10.371Z,27.00
2019-04-03T15:05:42.579Z,27.10
2019-04-03T15:08:11.108Z,27.70
2019-04-03T15:10:40.646Z,28.00
2019-04-03T15:13:12.728Z,28.30
2019-04-03T15:15:41.381Z,27.90
2019-04-03T15:18:11.371Z,28.10
2019-04-03T15:20:41.251Z,28.70
2019-04-03T15:23:10.791Z,28.90
2019-04-03T15:25:42.526Z,29.80
2019-04-03T15:28:11.743Z,30.30
2019-04-03T15:30:43.412Z,30.30
2019-04-03T15:33:12.682Z,31.00
2019-04-03T15:35:42.509Z,30.60
2019-04-03T15:38:13.305Z,30.80
2019-04-03T15:40:43.541Z,31.00
2019-04-03T15:43:15.948Z,30.80
2019-04-03T15:45:44.341Z,29.80
2019-04-03T15:48:13.893Z,29.00
2019-04-03T15:50:43.443Z,28.30
2019-04-03T15:53:12.990Z,27.90
2019-04-03T15:55:42.535Z,27.70
2019-04-03T15:58:12.694Z,26.90
2019-04-03T16:00:47.046Z,25.20
2019-04-03T16:03:17.568Z,24.20
2019-04-03T16:05:49.715Z,23.30
2019-04-03T16:08:19.669Z,22.70
2019-04-03T16:10:49.484Z,22.40
2019-04-03T16:13:21.347Z,22.10
2019-04-03T16:15:50.195Z,21.80
2019-04-03T16:18:20.646Z,21.50
2019-04-03T16:20:50.878Z,21.30
2019-04-03T16:23:20.439Z,21.00
2019-04-03T16:25:50.392Z,20.80
2019-04-03T16:28:19.998Z,20.60
2019-04-03T16:30:52.473Z,20.50
2019-04-03T16:33:23.984Z,20.30
2019-04-03T16:35:51.951Z,20.30
2019-04-03T16:38:21.845Z,20.10
2019-04-03T16:40:51.562Z,20.10
2019-04-03T16:43:22.217Z,19.90
2019-04-03T16:45:52.502Z,19.80
2019-04-03T16:48:22.021Z,19.80
2019-04-03T16:50:51.574Z,19.70
2019-04-03T16:53:21.443Z,19.60
2019-04-03T16:55:51.151Z,19.60
2019-04-03T16:58:20.722Z,19.50
2019-04-03T17:00:50.550Z,19.40
2019-04-03T17:03:20.309Z,19.30
2019-04-03T17:05:49.873Z,19.30
2019-04-03T17:08:19.481Z,19.20
2019-04-03T17:10:49.031Z,19.10
2019-04-03T17:13:18.901Z,19.10
2019-04-03T17:15:49.794Z,19.00
2019-04-03T17:18:19.330Z,18.80
2019-04-03T17:20:50.350Z,18.80
2019-04-03T17:23:20.219Z,18.70
2019-04-03T17:25:51.600Z,18.60
2019-04-03T17:28:21.050Z,18.50
2019-04-03T17:30:51.591Z,18.40
2019-04-03T17:33:22.185Z,18.30
2019-04-03T17:35:52.170Z,18.30
2019-04-03T17:38:21.752Z,18.20
2019-04-03T17:40:51.522Z,18.20
2019-04-03T17:43:21.053Z,18.10
2019-04-03T17:45:50.587Z,18.00
2019-04-03T17:48:20.146Z,18.00
2019-04-03T17:50:49.681Z,17.90
2019-04-03T17:53:19.252Z,17.90
2019-04-03T17:55:48.998Z,17.80
2019-04-03T17:58:18.559Z,17.80
2019-04-03T18:00:51.648Z,17.80
2019-04-03T18:03:19.619Z,17.80
2019-04-03T18:05:51.442Z,17.70
2019-04-03T18:08:21.942Z,17.70
2019-04-03T18:10:51.478Z,17.60
2019-04-03T18:13:23.372Z,17.60
2019-04-03T18:15:53.515Z,17.50
2019-04-03T18:18:23.027Z,17.50
2019-04-03T18:20:52.580Z,17.40
2019-04-03T18:23:22.507Z,17.30
2019-04-03T18:25:52.041Z,17.20
2019-04-03T18:28:21.584Z,17.10
2019-04-03T18:30:51.180Z,17.00
2019-04-03T18:33:20.727Z,16.90
2019-04-03T18:35:50.248Z,16.80
2019-04-03T18:38:19.831Z,16.80
2019-04-03T18:40:49.791Z,16.70
2019-04-03T18:43:21.647Z,16.80
2019-04-03T18:45:50.794Z,16.80
2019-04-03T18:48:20.312Z,16.70
2019-04-03T18:50:49.877Z,16.60
2019-04-03T18:53:19.498Z,16.60
2019-04-03T18:55:49.026Z,16.60
2019-04-03T18:58:18.566Z,16.50
2019-04-03T19:00:48.146Z,16.40
2019-04-03T19:03:17.684Z,16.30
2019-04-03T19:05:47.310Z,16.20
2019-04-03T19:08:18.296Z,16.20
2019-04-03T19:10:48.075Z,16.10
2019-04-03T19:13:17.634Z,16.00
2019-04-03T19:15:47.158Z,16.00
2019-04-03T19:18:19.635Z,15.90
2019-04-03T19:20:49.032Z,15.90
2019-04-03T19:23:18.563Z,15.80
2019-04-03T19:25:48.115Z,15.80
2019-04-03T19:28:17.790Z,15.80
2019-04-03T19:30:47.358Z,15.80
2019-04-03T19:33:17.086Z,15.70
2019-04-03T19:35:46.635Z,15.70
2019-04-03T19:38:16.388Z,15.50
2019-04-03T19:40:45.968Z,15.40
2019-04-03T19:43:15.578Z,15.40
2019-04-03T19:45:45.178Z,15.30
2019-04-03T19:48:14.946Z,15.20
2019-04-03T19:50:44.546Z,15.20
2019-04-03T19:53:14.178Z,15.10
2019-04-03T19:55:43.992Z,15.10
2019-04-03T19:58:13.528Z,15.10
2019-04-03T20:00:43.874Z,15.00
2019-04-03T20:03:14.185Z,15.00
2019-04-03T20:05:44.495Z,15.00
2019-04-03T20:08:18.213Z,14.90
2019-04-03T20:10:49.067Z,14.80
2019-04-03T20:13:18.290Z,14.80
2019-04-03T20:15:48.247Z,14.70
2019-04-03T20:18:17.802Z,14.60
2019-04-03T20:20:47.342Z,14.50
2019-04-03T20:23:17.271Z,14.40
2019-04-03T20:25:46.906Z,14.40
2019-04-03T20:28:18.871Z,14.20
2019-04-03T20:30:48.631Z,14.20
2019-04-03T20:33:18.184Z,14.20
2019-04-03T20:35:49.379Z,14.10
2019-04-03T20:38:18.898Z,14.00
2019-04-03T20:40:48.434Z,14.00
2019-04-03T20:43:17.961Z,14.00
2019-04-03T20:45:49.539Z,13.90
2019-04-03T20:48:18.919Z,13.80
2019-04-03T20:50:48.638Z,13.80
2019-04-03T20:53:18.308Z,13.70
2019-04-03T20:55:47.791Z,13.70
2019-04-03T20:58:17.383Z,13.70
2019-04-03T21:00:49.501Z,13.70
2019-04-03T21:03:18.142Z,13.70
2019-04-03T21:05:48.776Z,13.70
2019-04-03T21:08:18.993Z,13.60
2019-04-03T21:10:48.520Z,13.60
2019-04-03T21:13:18.047Z,13.60
2019-04-03T21:15:47.606Z,13.50
2019-04-03T21:18:17.202Z,13.40
2019-04-03T21:20:46.735Z,13.40
2019-04-03T21:23:16.306Z,13.30
2019-04-03T21:25:45.834Z,13.30
2019-04-03T21:28:15.381Z,13.20
2019-04-03T21:30:44.967Z,13.20
2019-04-03T21:33:17.142Z,13.10
2019-04-03T21:35:45.695Z,13.10
2019-04-03T21:38:15.236Z,13.00
2019-04-03T21:40:46.596Z,13.00
2019-04-03T21:43:15.969Z,13.00
2019-04-03T21:45:45.530Z,12.90
2019-04-03T21:48:15.105Z,12.90
2019-04-03T21:50:44.679Z,12.90
2019-04-03T21:53:14.266Z,12.80
2019-04-03T21:55:43.811Z,12.80
2019-04-03T21:58:13.341Z,12.80
2019-04-03T22:01:21.681Z,12.80
2019-04-03T22:03:52.027Z,12.70
2019-04-03T22:06:21.974Z,12.70
2019-04-03T22:08:51.780Z,12.70
2019-04-03T22:11:21.484Z,12.70
2019-04-03T22:13:51.023Z,12.60
2019-04-03T22:16:20.627Z,12.60
2019-04-03T22:18:50.098Z,12.60
2019-04-03T22:21:19.635Z,12.60
2019-04-03T22:23:49.198Z,12.50
2019-04-03T22:26:18.762Z,12.50
2019-04-03T22:28:48.284Z,12.50
2019-04-03T22:31:17.826Z,12.40
2019-04-03T22:33:47.358Z,12.40
2019-04-03T22:36:16.878Z,12.50
2019-04-03T22:38:46.462Z,12.40
2019-04-03T22:41:15.998Z,12.40
2019-04-03T22:43:46.183Z,12.30
2019-04-03T22:46:16.490Z,12.30
2019-04-03T22:48:46.070Z,12.30
2019-04-03T22:51:15.631Z,12.30
2019-04-03T22:53:45.187Z,12.30
2019-04-03T22:56:16.542Z,12.30
2019-04-03T22:58:45.942Z,12.30
2019-04-03T23:01:15.530Z,12.20
2019-04-03T23:03:45.061Z,12.20
2019-04-03T23:06:14.612Z,12.20
2019-04-03T23:08:44.237Z,12.20
2019-04-03T23:11:13.771Z,12.20
2019-04-03T23:13:43.338Z,12.20
2019-04-03T23:16:12.922Z,12.10
2019-04-03T23:18:42.543Z,12.10
2019-04-03T23:21:12.031Z,12.10
2019-04-03T23:23:41.599Z,12.00
2019-04-03T23:26:11.155Z,12.00
2019-04-03T23:28:40.709Z,12.00
2019-04-03T23:31:11.108Z,12.00
2019-04-03T23:33:41.490Z,12.00
2019-04-03T23:36:11.030Z,11.90
2019-04-03T23:38:40.626Z,11.90
2019-04-03T23:41:10.182Z,11.90
2019-04-03T23:43:40.254Z,11.90
2019-04-03T23:46:09.820Z,11.90
2019-04-03T23:48:39.391Z,11.90
2019-04-03T23:51:08.969Z,11.80
2019-04-03T23:53:38.560Z,11.80
2019-04-03T23:56:08.107Z,11.80
2019-04-03T23:58:37.718Z,11.80
